sensor_id;sensor_type;location;lat;lon;timestamp;P1;durP1;ratioP1;P2;durP2;ratioP2
44728;SDS011;30457;53.590;9.922;2023-02-15T00:01:05;27.65;;;13.98;;
44728;SDS011;30457;53.590;9.922;2023-02-15T00:05:32;26.63;;;14.43;;
44728;SDS011;30457;53.590;9.922;2023-02-15T00:09:58;22.40;;;13.60;;
44728;SDS011;30457;53.590;9.922;2023-02-15T00:14:23;28.17;;;13.85;;
44728;SDS011;30457;53.590;9.922;2023-02-15T00:18:51;23.38;;;12.95;;
44728;SDS011;30457;53.590;9.922;2023-02-15T00:23:17;29.17;;;14.18;;
44728;SDS011;30457;53.590;9.922;2023-02-15T00:27:42;28.27;;;13.95;;
44728;SDS011;30457;53.590;9.922;2023-02-15T00:32:08;28.00;;;15.45;;
44728;SDS011;30457;53.590;9.922;2023-02-15T00:36:33;27.77;;;15.02;;
44728;SDS011;30457;53.590;9.922;2023-02-15T00:40:59;25.33;;;14.70;;
44728;SDS011;30457;53.590;9.922;2023-02-15T00:45:26;30.40;;;14.15;;
44728;SDS011;30457;53.590;9.922;2023-02-15T00:49:52;27.50;;;15.85;;
44728;SDS011;30457;53.590;9.922;2023-02-15T00:54:18;26.15;;;14.63;;
44728;SDS011;30457;53.590;9.922;2023-02-15T00:58:43;27.88;;;14.30;;
44728;SDS011;30457;53.590;9.922;2023-02-15T01:03:09;28.65;;;14.00;;
44728;SDS011;30457;53.590;9.922;2023-02-15T01:07:35;27.02;;;14.85;;
44728;SDS011;30457;53.590;9.922;2023-02-15T01:12:01;25.77;;;13.93;;
44728;SDS011;30457;53.590;9.922;2023-02-15T01:16:27;26.20;;;14.07;;
44728;SDS011;30457;53.590;9.922;2023-02-15T01:20:53;25.50;;;14.43;;
44728;SDS011;30457;53.590;9.922;2023-02-15T01:25:19;25.13;;;13.90;;
44728;SDS011;30457;53.590;9.922;2023-02-15T01:29:47;28.27;;;14.60;;
44728;SDS011;30457;53.590;9.922;2023-02-15T01:34:13;28.85;;;15.20;;
44728;SDS011;30457;53.590;9.922;2023-02-15T01:38:39;24.88;;;13.95;;
44728;SDS011;30457;53.590;9.922;2023-02-15T01:43:09;27.52;;;14.85;;
44728;SDS011;30457;53.590;9.922;2023-02-15T01:47:39;26.00;;;13.68;;
44728;SDS011;30457;53.590;9.922;2023-02-15T01:52:08;26.38;;;14.15;;
44728;SDS011;30457;53.590;9.922;2023-02-15T01:56:35;25.80;;;14.50;;
44728;SDS011;30457;53.590;9.922;2023-02-15T02:01:04;26.80;;;14.45;;
44728;SDS011;30457;53.590;9.922;2023-02-15T02:05:34;27.90;;;15.32;;
44728;SDS011;30457;53.590;9.922;2023-02-15T02:10:00;29.65;;;15.05;;
44728;SDS011;30457;53.590;9.922;2023-02-15T02:14:32;25.25;;;13.90;;
44728;SDS011;30457;53.590;9.922;2023-02-15T02:38:03;25.27;;;14.07;;
44728;SDS011;30457;53.590;9.922;2023-02-15T02:42:44;26.25;;;14.00;;
44728;SDS011;30457;53.590;9.922;2023-02-15T02:47:23;27.98;;;14.07;;
44728;SDS011;30457;53.590;9.922;2023-02-15T02:51:58;25.45;;;13.90;;
44728;SDS011;30457;53.590;9.922;2023-02-15T02:56:36;26.20;;;13.20;;
44728;SDS011;30457;53.590;9.922;2023-02-15T03:01:09;26.48;;;13.13;;
44728;SDS011;30457;53.590;9.922;2023-02-15T03:05:41;28.20;;;14.35;;
44728;SDS011;30457;53.590;9.922;2023-02-15T03:10:10;29.50;;;13.52;;
44728;SDS011;30457;53.590;9.922;2023-02-15T03:14:36;24.17;;;13.32;;
44728;SDS011;30457;53.590;9.922;2023-02-15T03:19:13;23.27;;;13.23;;
44728;SDS011;30457;53.590;9.922;2023-02-15T03:23:43;23.35;;;13.52;;
44728;SDS011;30457;53.590;9.922;2023-02-15T03:28:17;24.45;;;13.05;;
44728;SDS011;30457;53.590;9.922;2023-02-15T03:32:46;25.92;;;14.23;;
44728;SDS011;30457;53.590;9.922;2023-02-15T03:37:26;23.00;;;13.02;;
44728;SDS011;30457;53.590;9.922;2023-02-15T03:42:01;22.88;;;12.15;;
44728;SDS011;30457;53.590;9.922;2023-02-15T03:51:15;24.13;;;13.82;;
44728;SDS011;30457;53.590;9.922;2023-02-15T03:55:59;24.40;;;13.70;;
44728;SDS011;30457;53.590;9.922;2023-02-15T04:00:25;24.98;;;13.52;;
44728;SDS011;30457;53.590;9.922;2023-02-15T04:05:10;29.65;;;13.95;;
44728;SDS011;30457;53.590;9.922;2023-02-15T04:09:35;34.47;;;13.90;;
44728;SDS011;30457;53.590;9.922;2023-02-15T04:14:20;27.15;;;13.73;;
44728;SDS011;30457;53.590;9.922;2023-02-15T04:19:04;24.95;;;13.63;;
44728;SDS011;30457;53.590;9.922;2023-02-15T04:23:48;26.80;;;12.75;;
44728;SDS011;30457;53.590;9.922;2023-02-15T04:28:32;24.60;;;13.45;;
44728;SDS011;30457;53.590;9.922;2023-02-15T04:32:58;22.52;;;12.48;;
44728;SDS011;30457;53.590;9.922;2023-02-15T04:37:23;24.42;;;13.38;;
44728;SDS011;30457;53.590;9.922;2023-02-15T04:41:49;23.52;;;11.75;;
44728;SDS011;30457;53.590;9.922;2023-02-15T04:46:14;23.75;;;13.05;;
44728;SDS011;30457;53.590;9.922;2023-02-15T04:50:40;24.55;;;12.63;;
44728;SDS011;30457;53.590;9.922;2023-02-15T04:55:06;25.85;;;12.73;;
44728;SDS011;30457;53.590;9.922;2023-02-15T04:59:31;25.65;;;13.00;;
44728;SDS011;30457;53.590;9.922;2023-02-15T05:03:57;23.88;;;12.90;;
44728;SDS011;30457;53.590;9.922;2023-02-15T05:08:23;24.75;;;13.57;;
44728;SDS011;30457;53.590;9.922;2023-02-15T05:12:48;21.10;;;11.93;;
44728;SDS011;30457;53.590;9.922;2023-02-15T05:17:14;21.27;;;11.80;;
44728;SDS011;30457;53.590;9.922;2023-02-15T05:21:39;22.83;;;12.85;;
44728;SDS011;30457;53.590;9.922;2023-02-15T05:26:05;23.90;;;12.50;;
44728;SDS011;30457;53.590;9.922;2023-02-15T05:30:50;23.42;;;12.25;;
44728;SDS011;30457;53.590;9.922;2023-02-15T05:35:27;21.25;;;13.02;;
44728;SDS011;30457;53.590;9.922;2023-02-15T05:39:53;22.52;;;13.38;;
44728;SDS011;30457;53.590;9.922;2023-02-15T05:44:18;26.10;;;13.40;;
44728;SDS011;30457;53.590;9.922;2023-02-15T05:48:44;26.00;;;12.30;;
44728;SDS011;30457;53.590;9.922;2023-02-15T05:53:09;19.25;;;11.88;;
44728;SDS011;30457;53.590;9.922;2023-02-15T05:57:36;19.77;;;11.30;;
44728;SDS011;30457;53.590;9.922;2023-02-15T06:02:01;21.58;;;13.13;;
44728;SDS011;30457;53.590;9.922;2023-02-15T06:06:27;20.30;;;11.85;;
44728;SDS011;30457;53.590;9.922;2023-02-15T06:10:52;19.63;;;11.63;;
44728;SDS011;30457;53.590;9.922;2023-02-15T06:15:18;25.13;;;11.88;;
44728;SDS011;30457;53.590;9.922;2023-02-15T06:19:43;32.78;;;13.15;;
44728;SDS011;30457;53.590;9.922;2023-02-15T06:24:09;19.27;;;11.65;;
44728;SDS011;30457;53.590;9.922;2023-02-15T06:28:35;20.33;;;12.10;;
44728;SDS011;30457;53.590;9.922;2023-02-15T06:33:02;21.98;;;13.02;;
44728;SDS011;30457;53.590;9.922;2023-02-15T06:37:27;20.58;;;11.52;;
44728;SDS011;30457;53.590;9.922;2023-02-15T06:41:53;19.65;;;11.70;;
44728;SDS011;30457;53.590;9.922;2023-02-15T06:46:19;24.55;;;12.77;;
44728;SDS011;30457;53.590;9.922;2023-02-15T06:50:44;23.55;;;13.13;;
44728;SDS011;30457;53.590;9.922;2023-02-15T06:55:10;22.80;;;11.82;;
44728;SDS011;30457;53.590;9.922;2023-02-15T06:59:35;19.25;;;10.20;;
44728;SDS011;30457;53.590;9.922;2023-02-15T07:04:01;22.80;;;12.43;;
44728;SDS011;30457;53.590;9.922;2023-02-15T07:08:27;21.60;;;11.65;;
44728;SDS011;30457;53.590;9.922;2023-02-15T07:12:53;22.88;;;12.57;;
44728;SDS011;30457;53.590;9.922;2023-02-15T07:17:19;21.98;;;12.95;;
44728;SDS011;30457;53.590;9.922;2023-02-15T07:21:44;22.63;;;12.65;;
44728;SDS011;30457;53.590;9.922;2023-02-15T07:26:10;24.92;;;13.13;;
44728;SDS011;30457;53.590;9.922;2023-02-15T07:30:36;23.05;;;13.38;;
44728;SDS011;30457;53.590;9.922;2023-02-15T07:35:01;28.00;;;12.15;;
44728;SDS011;30457;53.590;9.922;2023-02-15T07:39:27;23.08;;;13.13;;
44728;SDS011;30457;53.590;9.922;2023-02-15T07:43:53;21.60;;;11.70;;
44728;SDS011;30457;53.590;9.922;2023-02-15T07:48:18;23.92;;;13.93;;
44728;SDS011;30457;53.590;9.922;2023-02-15T07:52:44;23.08;;;13.35;;
44728;SDS011;30457;53.590;9.922;2023-02-15T07:57:09;26.13;;;13.88;;
44728;SDS011;30457;53.590;9.922;2023-02-15T08:01:36;21.98;;;12.75;;
44728;SDS011;30457;53.590;9.922;2023-02-15T08:06:02;27.30;;;13.80;;
44728;SDS011;30457;53.590;9.922;2023-02-15T08:10:28;22.42;;;11.98;;
44728;SDS011;30457;53.590;9.922;2023-02-15T08:15:12;23.42;;;11.98;;
44728;SDS011;30457;53.590;9.922;2023-02-15T08:19:38;22.10;;;12.65;;
44728;SDS011;30457;53.590;9.922;2023-02-15T08:24:04;25.92;;;12.93;;
44728;SDS011;30457;53.590;9.922;2023-02-15T08:28:31;24.15;;;12.82;;
44728;SDS011;30457;53.590;9.922;2023-02-15T08:32:57;23.38;;;12.90;;
44728;SDS011;30457;53.590;9.922;2023-02-15T08:48:58;25.58;;;13.68;;
44728;SDS011;30457;53.590;9.922;2023-02-15T08:53:24;20.92;;;13.07;;
44728;SDS011;30457;53.590;9.922;2023-02-15T08:57:49;38.45;;;14.60;;
44728;SDS011;30457;53.590;9.922;2023-02-15T09:02:15;25.10;;;13.98;;
44728;SDS011;30457;53.590;9.922;2023-02-15T09:06:41;29.17;;;14.45;;
44728;SDS011;30457;53.590;9.922;2023-02-15T09:11:10;28.33;;;14.20;;
44728;SDS011;30457;53.590;9.922;2023-02-15T09:15:37;29.45;;;14.77;;
44728;SDS011;30457;53.590;9.922;2023-02-15T09:20:03;27.00;;;14.18;;
44728;SDS011;30457;53.590;9.922;2023-02-15T09:24:31;27.17;;;14.65;;
44728;SDS011;30457;53.590;9.922;2023-02-15T09:28:58;26.27;;;13.63;;
44728;SDS011;30457;53.590;9.922;2023-02-15T09:33:26;25.60;;;13.98;;
44728;SDS011;30457;53.590;9.922;2023-02-15T09:37:51;24.70;;;13.32;;
44728;SDS011;30457;53.590;9.922;2023-02-15T09:42:29;26.02;;;14.07;;
44728;SDS011;30457;53.590;9.922;2023-02-15T09:47:24;24.70;;;13.00;;
44728;SDS011;30457;53.590;9.922;2023-02-15T09:56:53;25.27;;;14.63;;
44728;SDS011;30457;53.590;9.922;2023-02-15T10:01:31;27.00;;;14.10;;
44728;SDS011;30457;53.590;9.922;2023-02-15T10:11:04;28.83;;;15.10;;
44728;SDS011;30457;53.590;9.922;2023-02-15T10:20:50;31.45;;;16.80;;
44728;SDS011;30457;53.590;9.922;2023-02-15T10:25:26;31.67;;;15.50;;
44728;SDS011;30457;53.590;9.922;2023-02-15T10:30:03;32.92;;;16.42;;
44728;SDS011;30457;53.590;9.922;2023-02-15T10:34:38;34.97;;;17.67;;
44728;SDS011;30457;53.590;9.922;2023-02-15T10:39:21;33.50;;;17.33;;
44728;SDS011;30457;53.590;9.922;2023-02-15T10:49:01;37.83;;;18.80;;
44728;SDS011;30457;53.590;9.922;2023-02-15T11:03:26;36.60;;;19.42;;
44728;SDS011;30457;53.590;9.922;2023-02-15T11:08:11;41.40;;;19.00;;
44728;SDS011;30457;53.590;9.922;2023-02-15T11:12:37;36.17;;;18.83;;
44728;SDS011;30457;53.590;9.922;2023-02-15T11:17:06;38.03;;;19.50;;
44728;SDS011;30457;53.590;9.922;2023-02-15T11:21:37;43.03;;;21.05;;
44728;SDS011;30457;53.590;9.922;2023-02-15T11:26:16;32.10;;;17.73;;
44728;SDS011;30457;53.590;9.922;2023-02-15T11:31:18;38.47;;;19.52;;
44728;SDS011;30457;53.590;9.922;2023-02-15T11:35:50;34.42;;;17.67;;
44728;SDS011;30457;53.590;9.922;2023-02-15T11:40:25;34.08;;;18.17;;
44728;SDS011;30457;53.590;9.922;2023-02-15T11:45:39;33.63;;;18.75;;
44728;SDS011;30457;53.590;9.922;2023-02-15T11:49:44;36.85;;;19.77;;
44728;SDS011;30457;53.590;9.922;2023-02-15T11:54:10;33.67;;;18.20;;
44728;SDS011;30457;53.590;9.922;2023-02-15T11:58:37;38.25;;;21.13;;
44728;SDS011;30457;53.590;9.922;2023-02-15T12:03:12;40.40;;;20.17;;
44728;SDS011;30457;53.590;9.922;2023-02-15T12:07:45;35.55;;;18.70;;
44728;SDS011;30457;53.590;9.922;2023-02-15T12:12:30;37.15;;;19.90;;
44728;SDS011;30457;53.590;9.922;2023-02-15T12:16:58;43.90;;;22.77;;
44728;SDS011;30457;53.590;9.922;2023-02-15T12:21:28;41.75;;;20.65;;
44728;SDS011;30457;53.590;9.922;2023-02-15T12:25:59;37.10;;;20.95;;
44728;SDS011;30457;53.590;9.922;2023-02-15T12:30:27;35.30;;;19.95;;
44728;SDS011;30457;53.590;9.922;2023-02-15T12:35:12;37.80;;;19.45;;
44728;SDS011;30457;53.590;9.922;2023-02-15T12:39:50;33.40;;;18.60;;
44728;SDS011;30457;53.590;9.922;2023-02-15T12:44:29;33.95;;;18.40;;
44728;SDS011;30457;53.590;9.922;2023-02-15T12:49:04;35.78;;;19.58;;
44728;SDS011;30457;53.590;9.922;2023-02-15T12:53:34;30.50;;;18.65;;
44728;SDS011;30457;53.590;9.922;2023-02-15T13:02:53;31.05;;;18.48;;
44728;SDS011;30457;53.590;9.922;2023-02-15T13:07:21;28.65;;;18.30;;
44728;SDS011;30457;53.590;9.922;2023-02-15T13:11:49;32.85;;;17.98;;
44728;SDS011;30457;53.590;9.922;2023-02-15T13:16:14;30.35;;;17.05;;
44728;SDS011;30457;53.590;9.922;2023-02-15T13:20:41;31.45;;;18.05;;
44728;SDS011;30457;53.590;9.922;2023-02-15T13:25:23;29.60;;;18.05;;
44728;SDS011;30457;53.590;9.922;2023-02-15T13:29:52;29.42;;;16.92;;
44728;SDS011;30457;53.590;9.922;2023-02-15T13:34:33;32.20;;;16.90;;
44728;SDS011;30457;53.590;9.922;2023-02-15T13:39:03;30.75;;;18.13;;
44728;SDS011;30457;53.590;9.922;2023-02-15T13:43:59;27.70;;;16.58;;
44728;SDS011;30457;53.590;9.922;2023-02-15T13:48:51;25.65;;;16.45;;
44728;SDS011;30457;53.590;9.922;2023-02-15T13:58:59;26.15;;;15.57;;
44728;SDS011;30457;53.590;9.922;2023-02-15T14:13:24;25.52;;;15.82;;
44728;SDS011;30457;53.590;9.922;2023-02-15T14:23:04;30.25;;;16.25;;
44728;SDS011;30457;53.590;9.922;2023-02-15T14:27:43;28.40;;;16.02;;
44728;SDS011;30457;53.590;9.922;2023-02-15T14:32:38;23.73;;;15.15;;
44728;SDS011;30457;53.590;9.922;2023-02-15T14:37:08;29.95;;;15.98;;
44728;SDS011;30457;53.590;9.922;2023-02-15T14:50:38;25.42;;;14.50;;
44728;SDS011;30457;53.590;9.922;2023-02-15T14:55:09;27.88;;;14.68;;
44728;SDS011;30457;53.590;9.922;2023-02-15T15:04:24;24.63;;;14.48;;
44728;SDS011;30457;53.590;9.922;2023-02-15T15:08:55;24.92;;;14.32;;
44728;SDS011;30457;53.590;9.922;2023-02-15T15:13:53;23.48;;;14.82;;
44728;SDS011;30457;53.590;9.922;2023-02-15T15:32:11;20.67;;;13.77;;
44728;SDS011;30457;53.590;9.922;2023-02-15T15:41:41;19.95;;;13.00;;
44728;SDS011;30457;53.590;9.922;2023-02-15T15:51:18;25.60;;;14.30;;
44728;SDS011;30457;53.590;9.922;2023-02-15T15:55:58;22.13;;;12.65;;
44728;SDS011;30457;53.590;9.922;2023-02-15T16:00:35;19.98;;;12.35;;
44728;SDS011;30457;53.590;9.922;2023-02-15T16:05:08;19.45;;;12.43;;
44728;SDS011;30457;53.590;9.922;2023-02-15T16:09:34;19.17;;;12.65;;
44728;SDS011;30457;53.590;9.922;2023-02-15T16:13:59;23.33;;;12.95;;
44728;SDS011;30457;53.590;9.922;2023-02-15T16:18:25;17.42;;;12.27;;
44728;SDS011;30457;53.590;9.922;2023-02-15T16:27:56;21.75;;;11.90;;
44728;SDS011;30457;53.590;9.922;2023-02-15T16:32:25;18.30;;;11.95;;
44728;SDS011;30457;53.590;9.922;2023-02-15T16:36:52;20.02;;;10.95;;
44728;SDS011;30457;53.590;9.922;2023-02-15T16:41:36;16.83;;;11.80;;
44728;SDS011;30457;53.590;9.922;2023-02-15T16:46:03;18.05;;;12.02;;
44728;SDS011;30457;53.590;9.922;2023-02-15T16:50:33;23.40;;;12.65;;
44728;SDS011;30457;53.590;9.922;2023-02-15T16:55:02;18.67;;;12.27;;
44728;SDS011;30457;53.590;9.922;2023-02-15T16:59:33;21.58;;;12.63;;
44728;SDS011;30457;53.590;9.922;2023-02-15T17:08:45;17.92;;;11.38;;
44728;SDS011;30457;53.590;9.922;2023-02-15T17:13:14;20.73;;;12.77;;
44728;SDS011;30457;53.590;9.922;2023-02-15T17:17:41;20.85;;;13.02;;
44728;SDS011;30457;53.590;9.922;2023-02-15T17:22:07;22.35;;;13.13;;
44728;SDS011;30457;53.590;9.922;2023-02-15T17:26:41;20.83;;;12.95;;
44728;SDS011;30457;53.590;9.922;2023-02-15T17:31:07;20.15;;;11.73;;
44728;SDS011;30457;53.590;9.922;2023-02-15T17:35:33;24.00;;;13.48;;
44728;SDS011;30457;53.590;9.922;2023-02-15T17:39:59;19.30;;;12.32;;
44728;SDS011;30457;53.590;9.922;2023-02-15T17:44:27;22.20;;;12.82;;
44728;SDS011;30457;53.590;9.922;2023-02-15T17:48:53;21.17;;;13.05;;
44728;SDS011;30457;53.590;9.922;2023-02-15T17:53:20;22.17;;;13.55;;
44728;SDS011;30457;53.590;9.922;2023-02-15T17:57:46;21.38;;;12.90;;
44728;SDS011;30457;53.590;9.922;2023-02-15T18:02:12;23.25;;;13.85;;
44728;SDS011;30457;53.590;9.922;2023-02-15T18:06:56;19.17;;;12.48;;
44728;SDS011;30457;53.590;9.922;2023-02-15T18:11:40;18.92;;;12.18;;
44728;SDS011;30457;53.590;9.922;2023-02-15T18:16:10;22.75;;;12.95;;
44728;SDS011;30457;53.590;9.922;2023-02-15T18:20:43;20.05;;;12.45;;
44728;SDS011;30457;53.590;9.922;2023-02-15T18:25:12;22.27;;;13.07;;
44728;SDS011;30457;53.590;9.922;2023-02-15T18:29:39;19.77;;;11.80;;
44728;SDS011;30457;53.590;9.922;2023-02-15T18:34:05;27.02;;;15.43;;
44728;SDS011;30457;53.590;9.922;2023-02-15T18:38:43;22.17;;;13.50;;
44728;SDS011;30457;53.590;9.922;2023-02-15T18:43:12;22.67;;;13.23;;
44728;SDS011;30457;53.590;9.922;2023-02-15T18:47:37;21.92;;;12.27;;
44728;SDS011;30457;53.590;9.922;2023-02-15T18:52:03;20.45;;;12.05;;
44728;SDS011;30457;53.590;9.922;2023-02-15T18:56:29;21.65;;;13.30;;
44728;SDS011;30457;53.590;9.922;2023-02-15T19:00:55;21.27;;;13.52;;
44728;SDS011;30457;53.590;9.922;2023-02-15T19:05:23;19.95;;;12.57;;
44728;SDS011;30457;53.590;9.922;2023-02-15T19:09:52;21.17;;;13.23;;
44728;SDS011;30457;53.590;9.922;2023-02-15T19:14:25;19.23;;;12.90;;
44728;SDS011;30457;53.590;9.922;2023-02-15T19:18:55;21.20;;;12.13;;
44728;SDS011;30457;53.590;9.922;2023-02-15T19:23:21;21.67;;;12.52;;
44728;SDS011;30457;53.590;9.922;2023-02-15T19:27:48;20.20;;;13.00;;
44728;SDS011;30457;53.590;9.922;2023-02-15T19:32:14;19.33;;;12.13;;
44728;SDS011;30457;53.590;9.922;2023-02-15T19:36:40;24.35;;;11.60;;
44728;SDS011;30457;53.590;9.922;2023-02-15T19:41:15;24.75;;;13.32;;
44728;SDS011;30457;53.590;9.922;2023-02-15T19:45:47;20.58;;;11.77;;
44728;SDS011;30457;53.590;9.922;2023-02-15T19:50:20;22.45;;;12.18;;
44728;SDS011;30457;53.590;9.922;2023-02-15T19:54:47;21.02;;;13.15;;
44728;SDS011;30457;53.590;9.922;2023-02-15T19:59:21;25.73;;;14.10;;
44728;SDS011;30457;53.590;9.922;2023-02-15T20:03:51;24.80;;;15.63;;
44728;SDS011;30457;53.590;9.922;2023-02-15T20:08:18;26.65;;;13.75;;
44728;SDS011;30457;53.590;9.922;2023-02-15T20:12:47;23.67;;;13.52;;
44728;SDS011;30457;53.590;9.922;2023-02-15T20:17:13;20.92;;;13.50;;
44728;SDS011;30457;53.590;9.922;2023-02-15T20:21:39;27.30;;;13.35;;
44728;SDS011;30457;53.590;9.922;2023-02-15T20:26:14;21.98;;;13.48;;
44728;SDS011;30457;53.590;9.922;2023-02-15T20:35:11;18.60;;;11.77;;
44728;SDS011;30457;53.590;9.922;2023-02-15T20:39:38;29.25;;;14.25;;
44728;SDS011;30457;53.590;9.922;2023-02-15T20:44:20;22.48;;;12.38;;
44728;SDS011;30457;53.590;9.922;2023-02-15T20:48:54;22.77;;;13.80;;
44728;SDS011;30457;53.590;9.922;2023-02-15T20:53:20;29.08;;;13.38;;
44728;SDS011;30457;53.590;9.922;2023-02-15T20:57:46;23.90;;;13.35;;
44728;SDS011;30457;53.590;9.922;2023-02-15T21:06:45;22.45;;;14.20;;
44728;SDS011;30457;53.590;9.922;2023-02-15T21:11:20;23.48;;;13.90;;
44728;SDS011;30457;53.590;9.922;2023-02-15T21:15:47;24.65;;;14.63;;
44728;SDS011;30457;53.590;9.922;2023-02-15T21:20:13;22.42;;;12.85;;
44728;SDS011;30457;53.590;9.922;2023-02-15T21:24:39;20.60;;;12.25;;
44728;SDS011;30457;53.590;9.922;2023-02-15T21:29:18;22.23;;;12.93;;
44728;SDS011;30457;53.590;9.922;2023-02-15T21:33:45;23.88;;;13.95;;
44728;SDS011;30457;53.590;9.922;2023-02-15T21:38:12;22.15;;;13.15;;
44728;SDS011;30457;53.590;9.922;2023-02-15T21:42:39;22.48;;;13.65;;
44728;SDS011;30457;53.590;9.922;2023-02-15T21:47:28;23.10;;;13.68;;
44728;SDS011;30457;53.590;9.922;2023-02-15T21:52:15;19.98;;;12.30;;
44728;SDS011;30457;53.590;9.922;2023-02-15T21:56:44;19.88;;;12.52;;
44728;SDS011;30457;53.590;9.922;2023-02-15T22:01:32;29.67;;;14.45;;
44728;SDS011;30457;53.590;9.922;2023-02-15T22:05:57;19.85;;;12.93;;
44728;SDS011;30457;53.590;9.922;2023-02-15T22:10:30;20.00;;;12.48;;
44728;SDS011;30457;53.590;9.922;2023-02-15T22:14:56;22.90;;;14.07;;
44728;SDS011;30457;53.590;9.922;2023-02-15T22:19:22;23.50;;;13.63;;
44728;SDS011;30457;53.590;9.922;2023-02-15T22:23:48;22.10;;;12.48;;
44728;SDS011;30457;53.590;9.922;2023-02-15T22:28:13;21.98;;;13.43;;
44728;SDS011;30457;53.590;9.922;2023-02-15T22:32:40;24.42;;;13.27;;
44728;SDS011;30457;53.590;9.922;2023-02-15T22:37:07;22.20;;;12.88;;
44728;SDS011;30457;53.590;9.922;2023-02-15T22:41:32;26.10;;;13.43;;
44728;SDS011;30457;53.590;9.922;2023-02-15T22:45:59;24.17;;;13.98;;
44728;SDS011;30457;53.590;9.922;2023-02-15T22:50:30;22.38;;;12.45;;
44728;SDS011;30457;53.590;9.922;2023-02-15T22:54:57;23.85;;;12.00;;
44728;SDS011;30457;53.590;9.922;2023-02-15T22:59:25;23.33;;;11.27;;
44728;SDS011;30457;53.590;9.922;2023-02-15T23:03:53;23.27;;;11.93;;
44728;SDS011;30457;53.590;9.922;2023-02-15T23:08:19;22.38;;;11.68;;
44728;SDS011;30457;53.590;9.922;2023-02-15T23:12:44;26.05;;;12.50;;
44728;SDS011;30457;53.590;9.922;2023-02-15T23:17:39;19.60;;;11.40;;
44728;SDS011;30457;53.590;9.922;2023-02-15T23:22:07;20.70;;;11.98;;
44728;SDS011;30457;53.590;9.922;2023-02-15T23:31:13;20.90;;;12.40;;
44728;SDS011;30457;53.590;9.922;2023-02-15T23:35:43;19.05;;;11.73;;
44728;SDS011;30457;53.590;9.922;2023-02-15T23:40:15;24.45;;;12.23;;
44728;SDS011;30457;53.590;9.922;2023-02-15T23:45:01;20.90;;;12.52;;
44728;SDS011;30457;53.590;9.922;2023-02-15T23:49:27;22.30;;;12.02;;
44728;SDS011;30457;53.590;9.922;2023-02-15T23:53:52;19.30;;;11.52;;
44728;SDS011;30457;53.590;9.922;2023-02-15T23:58:19;19.45;;;12.25;;
